Time;durP1;ratioP1;P1;durP2;ratioP2;P2;SDS_P1;SDS_P2;PMS_P1;PMS_P2;Temp;Humidity;BMP_temperature;BMP_pressure;BME280_temperature;BME280_humidity;BME280_pressure;Samples;Min_cycle;Max_cycle;Signal;HPM_P1;HPM_P2
2023/08/05 00:02:23;;;;;;;9.43;8.52;;;;;;;26.29;59.48;97668.16;5114364;28;20258;-56
2023/08/05 00:04:48;;;;;;;7.95;7.25;;;;;;;26.16;59.84;97653.19;5114225;27;20535;-57
2023/08/05 00:07:13;;;;;;;8.55;7.78;;;;;;;25.98;60.72;97647.88;5114231;28;20412;-56
2023/08/05 00:09:39;;;;;;;9.23;7.65;;;;;;;26.36;60.05;97680.28;5114184;28;20174;-56
2023/08/05 00:12:05;;;;;;;7.78;7.07;;;;;;;26.06;61.42;97674.09;5114155;28;20207;-56
2023/08/05 00:14:30;;;;;;;7.30;6.70;;;;;;;25.91;62.43;97671.00;5113866;28;20216;-56
2023/08/05 00:16:55;;;;;;;7.15;6.53;;;;;;;25.75;63.81;97674.16;5113600;28;20199;-56
2023/08/05 00:19:21;;;;;;;8.02;7.20;;;;;;;25.57;64.54;97671.47;5114062;28;20167;-56
2023/08/05 00:21:46;;;;;;;8.73;7.20;;;;;;;25.65;64.23;97671.19;5113899;28;20179;-56
2023/08/05 00:24:11;;;;;;;7.20;6.60;;;;;;;25.51;64.28;97643.22;5113967;28;20167;-56
2023/08/05 00:26:37;;;;;;;7.50;6.85;;;;;;;25.76;62.96;97638.69;5113874;28;20179;-57
2023/08/05 00:29:02;;;;;;;7.45;6.85;;;;;;;26.05;61.83;97653.09;5113552;27;20667;-56
2023/08/05 00:31:28;;;;;;;7.85;7.15;;;;;;;25.90;62.69;97650.78;5113820;28;20170;-56
2023/08/05 00:33:53;;;;;;;8.55;7.13;;;;;;;25.47;64.79;97642.00;5113616;28;20182;-56
2023/08/05 00:36:18;;;;;;;7.78;6.93;;;;;;;25.64;63.68;97632.47;5113796;28;20575;-56
2023/08/05 00:38:44;;;;;;;7.65;6.85;;;;;;;25.53;64.33;97635.00;5113619;28;20170;-56
2023/08/05 00:41:09;;;;;;;14.55;7.65;;;;;;;25.43;65.09;97637.38;5113486;28;20549;-57
2023/08/05 00:43:34;;;;;;;9.00;7.43;;;;;;;25.50;63.96;97622.22;5113543;28;20217;-57
2023/08/05 00:46:00;;;;;;;8.57;7.80;;;;;;;25.62;63.59;97623.94;5113534;28;20228;-56
2023/08/05 00:48:26;;;;;;;8.75;7.85;;;;;;;25.82;63.29;97651.06;5113435;28;20226;-56
2023/08/05 00:50:53;;;;;;;7.90;7.20;;;;;;;25.55;64.50;97632.97;5113398;28;20284;-56
2023/08/05 00:53:22;;;;;;;7.70;6.93;;;;;;;25.44;65.63;97647.75;5113429;28;20199;-56
2023/08/05 00:55:51;;;;;;;8.02;7.32;;;;;;;25.16;66.00;97607.59;5113131;28;20219;-56
2023/08/05 00:58:19;;;;;;;7.32;6.82;;;;;;;25.46;66.05;97645.69;5113241;28;20177;-56
2023/08/05 01:00:45;;;;;;;7.50;6.80;;;;;;;25.27;66.90;97628.13;5113205;28;20175;-56
2023/08/05 01:03:10;;;;;;;7.57;6.88;;;;;;;25.10;68.43;97639.41;5113329;28;20167;-56
2023/08/05 01:05:37;;;;;;;9.27;6.65;;;;;;;24.89;69.08;97632.63;5113141;28;20178;-56
2023/08/05 01:08:03;;;;;;;8.90;6.63;;;;;;;25.01;67.97;97608.97;5113235;28;20557;-56
2023/08/05 01:10:29;;;;;;;7.30;6.60;;;;;;;25.00;68.52;97621.38;5112788;28;20267;-56
2023/08/05 01:12:54;;;;;;;8.13;7.05;;;;;;;25.04;68.82;97638.47;5112648;28;20262;-56
2023/08/05 01:15:20;;;;;;;8.45;7.40;;;;;;;25.05;69.06;97637.44;5112952;28;20179;-56
2023/08/05 01:17:45;;;;;;;7.93;7.32;;;;;;;25.01;69.40;97627.47;5112761;28;20287;-56
2023/08/05 01:20:13;;;;;;;8.10;7.38;;;;;;;24.92;70.74;97631.41;5112914;28;20178;-56
2023/08/05 01:22:43;;;;;;;7.88;7.13;;;;;;;25.06;70.37;97617.03;5112879;28;20173;-56
2023/08/05 01:25:30;;;;;;;7.85;6.20;;;;;;;25.22;70.96;97638.53;5112751;28;20566;-56
2023/08/05 01:27:58;;;;;;;7.32;6.72;;;;;;;25.04;71.38;97609.34;5112597;28;20189;-56
2023/08/05 01:30:25;;;;;;;7.85;6.88;;;;;;;25.12;72.60;97632.88;5112016;28;20175;-56
2023/08/05 01:32:54;;;;;;;6.32;5.82;;;;;;;24.99;73.47;97621.56;5112715;28;20179;-56
2023/08/05 01:35:22;;;;;;;5.78;5.32;;;;;;;25.04;73.89;97601.38;5112381;28;20537;-56
2023/08/05 01:37:47;;;;;;;6.85;6.25;;;;;;;24.74;75.75;97597.72;5112400;28;20343;-56
2023/08/05 01:40:13;;;;;;;6.32;5.80;;;;;;;24.54;77.52;97590.88;5112734;28;20258;-56
2023/08/05 01:42:39;;;;;;;7.85;6.50;;;;;;;24.56;78.27;97616.09;5112507;28;20171;-56
2023/08/05 01:45:05;;;;;;;6.70;6.10;;;;;;;24.94;77.24;97635.47;5112320;28;20182;-56
2023/08/05 01:47:31;;;;;;;7.88;6.43;;;;;;;24.64;78.86;97617.72;5112627;28;20179;-56
2023/08/05 01:49:56;;;;;;;8.80;6.18;;;;;;;24.33;80.16;97597.28;5112234;28;20171;-56
2023/08/05 01:52:22;;;;;;;6.43;5.82;;;;;;;24.23;82.28;97610.19;5112336;28;20167;-56
2023/08/05 01:54:47;;;;;;;7.97;6.78;;;;;;;24.37;81.92;97611.72;5111890;28;20498;-56
2023/08/05 01:57:12;;;;;;;7.32;6.22;;;;;;;24.53;80.78;97595.38;5112063;28;20691;-56
2023/08/05 01:59:38;;;;;;;7.07;6.38;;;;;;;24.50;85.35;97621.44;5111766;28;20190;-56
2023/08/05 02:02:03;;;;;;;7.32;6.63;;;;;;;24.20;87.88;97605.28;5112141;28;20258;-56
2023/08/05 02:04:29;;;;;;;7.32;6.63;;;;;;;24.25;88.74;97628.44;5111986;28;20186;-56
2023/08/05 02:06:54;;;;;;;7.32;6.63;;;;;;;23.96;90.73;97591.16;5112031;28;20278;-56
2023/08/05 02:09:20;;;;;;;8.18;6.75;;;;;;;23.95;92.22;97600.91;5111923;28;20630;-56
2023/08/05 02:11:46;;;;;;;7.18;6.47;;;;;;;24.12;93.34;97628.50;5111816;28;20266;-56
2023/08/05 02:14:11;;;;;;;6.70;6.07;;;;;;;24.08;92.66;97606.19;5111930;28;20179;-57
2023/08/05 02:16:37;;;;;;;6.82;6.15;;;;;;;24.30;91.50;97613.59;5108966;28;20222;-56
2023/08/05 02:19:02;;;;;;;6.40;5.80;;;;;;;24.49;91.23;97630.41;5109202;28;20203;-56
2023/08/05 02:21:28;;;;;;;7.35;6.13;;;;;;;24.44;92.65;97638.94;5109227;28;20183;-56
2023/08/05 02:23:53;;;;;;;7.03;6.30;;;;;;;24.44;91.58;97638.94;5109240;28;20270;-56
2023/08/05 02:26:18;;;;;;;6.68;5.97;;;;;;;24.26;91.60;97614.25;5109182;28;20278;-56
2023/08/05 02:28:45;;;;;;;7.57;6.97;;;;;;;24.14;93.59;97611.41;5109145;28;20261;-56
2023/08/05 02:31:11;;;;;;;6.90;6.30;;;;;;;24.03;94.11;97592.78;5109055;28;20210;-56
2023/08/05 02:33:36;;;;;;;6.95;6.25;;;;;;;24.17;93.87;97621.59;5109186;28;20727;-56
2023/08/05 02:36:03;;;;;;;7.05;6.43;;;;;;;24.09;94.07;97627.09;5108942;28;20275;-56
2023/08/05 02:38:28;;;;;;;7.72;6.47;;;;;;;23.85;97.93;97626.94;5109066;28;20179;-56
2023/08/05 02:40:54;;;;;;;7.32;6.55;;;;;;;23.75;98.14;97611.50;5108862;28;20175;-56
2023/08/05 02:43:19;;;;;;;8.10;7.40;;;;;;;23.89;97.23;97619.44;5108992;28;20270;-56
2023/08/05 02:45:51;;;;;;;7.75;6.32;;;;;;;23.92;96.74;97607.41;5108925;28;20584;-56
2023/08/05 02:48:16;;;;;;;7.75;7.05;;;;;;;23.72;98.58;97610.31;5110663;28;20572;-56
2023/08/05 02:50:41;;;;;;;7.30;6.75;;;;;;;23.78;97.61;97612.91;5111364;28;20177;-57
2023/08/05 02:53:07;;;;;;;7.50;6.80;;;;;;;23.61;98.14;97598.53;5111110;28;20262;-57
2023/08/05 02:55:32;;;;;;;7.10;6.60;;;;;;;23.59;98.16;97594.50;5111276;28;20629;-54
2023/08/05 02:57:57;;;;;;;7.95;7.00;;;;;;;23.69;97.90;97609.69;5111239;28;20226;-56
2023/08/05 03:00:23;;;;;;;7.30;6.60;;;;;;;23.94;98.18;97638.13;5111341;28;20167;-56
2023/08/05 03:02:48;;;;;;;7.60;6.80;;;;;;;23.68;100.00;97634.47;5111352;28;20171;-55
2023/08/05 03:05:14;;;;;;;8.52;7.00;;;;;;;23.59;100.00;97623.53;5111529;28;20167;-56
2023/08/05 03:07:39;;;;;;;7.68;6.90;;;;;;;23.50;100.00;97624.75;5110769;28;20306;-55
2023/08/05 03:10:05;;;;;;;9.40;7.22;;;;;;;23.41;100.00;97613.59;5111089;28;20167;-55
2023/08/05 03:12:30;;;;;;;18.83;7.68;;;;;;;23.40;100.00;97617.25;5111169;28;20215;-56
2023/08/05 03:14:56;;;;;;;18.35;7.32;;;;;;;23.14;100.00;97603.22;5111146;28;20204;-55
2023/08/05 03:17:21;;;;;;;7.72;6.90;;;;;;;23.10;100.00;97609.91;5111029;28;20241;-55
2023/08/05 03:19:51;;;;;;;8.98;7.28;;;;;;;22.97;100.00;97604.63;5111056;28;20171;-56
2023/08/05 03:22:16;;;;;;;8.98;8.27;;;;;;;23.08;100.00;97630.44;5111165;28;20240;-56
2023/08/05 03:24:42;;;;;;;8.80;7.40;;;;;;;23.18;100.00;97605.28;5111087;28;20641;-56
2023/08/05 03:27:07;;;;;;;7.60;7.00;;;;;;;23.27;100.00;97606.72;5110702;28;20218;-56
2023/08/05 03:29:33;;;;;;;8.10;7.18;;;;;;;23.48;100.00;97632.09;5110967;28;20201;-56
2023/08/05 03:31:58;;;;;;;9.57;8.57;;;;;;;23.27;100.00;97605.88;5111218;28;20183;-56
2023/08/05 03:34:24;;;;;;;8.40;7.50;;;;;;;23.31;100.00;97592.06;5108241;28;20829;-56
2023/08/05 03:36:51;;;;;;;9.98;9.07;;;;;;;23.14;100.00;97608.50;5108282;28;20219;-55
2023/08/05 03:39:17;;;;;;;9.82;8.30;;;;;;;23.12;100.00;97599.94;5108202;28;20187;-56
2023/08/05 03:41:44;;;;;;;12.20;8.55;;;;;;;23.06;100.00;97622.69;5108284;28;20187;-56
2023/08/05 03:44:10;;;;;;;9.73;8.82;;;;;;;23.28;100.00;97632.09;5108349;28;20186;-56
2023/08/05 03:46:37;;;;;;;12.40;9.32;;;;;;;23.37;100.00;97638.78;5108272;28;20714;-56
2023/08/05 03:49:03;;;;;;;13.10;8.90;;;;;;;23.41;100.00;97612.78;5108145;28;20527;-55
2023/08/05 03:51:28;;;;;;;9.30;8.40;;;;;;;23.42;100.00;97620.50;5108310;28;20202;-55
2023/08/05 03:53:54;;;;;;;8.93;7.82;;;;;;;23.73;100.00;97632.03;5111915;28;20653;-56
2023/08/05 03:56:22;;;;;;;13.15;8.13;;;;;;;23.55;100.00;97624.97;5111941;28;20199;-56
2023/08/05 03:58:47;;;;;;;9.15;8.35;;;;;;;23.37;97.67;97601.00;5111867;28;20187;-56
2023/08/05 04:01:17;;;;;;;9.93;8.40;;;;;;;23.46;96.41;97597.13;5111889;28;20725;-55
2023/08/05 04:03:42;;;;;;;9.30;7.78;;;;;;;23.67;97.57;97607.47;5111841;28;20171;-56
2023/08/05 04:06:07;;;;;;;11.13;8.38;;;;;;;23.62;97.62;97586.97;5111620;28;20205;-55
2023/08/05 04:08:33;;;;;;;9.77;8.82;;;;;;;23.81;93.91;97605.38;5111813;28;20232;-56
2023/08/05 04:10:58;;;;;;;11.63;9.85;;;;;;;24.06;93.39;97618.78;5111977;28;20607;-56
2023/08/05 04:13:26;;;;;;;12.63;11.18;;;;;;;24.25;97.98;97617.88;5114217;28;20179;-56
2023/08/05 04:15:53;;;;;;;14.65;13.13;;;;;;;24.04;98.79;97581.97;5113976;28;20606;-56
2023/08/05 04:18:19;;;;;;;12.25;11.10;;;;;;;24.20;100.00;97620.38;5111417;28;20191;-56
2023/08/05 04:20:46;;;;;;;15.82;11.77;;;;;;;24.11;96.20;97589.88;5111553;28;20183;-56
2023/08/05 04:23:15;;;;;;;26.77;16.80;;;;;;;24.37;100.00;97621.50;5111495;28;20195;-56
2023/08/05 04:25:43;;;;;;;16.60;14.90;;;;;;;24.43;100.00;97625.97;5111408;28;20179;-56
2023/08/05 04:28:11;;;;;;;18.25;15.63;;;;;;;24.44;100.00;97611.72;5111382;28;20657;-56
2023/08/05 04:30:36;;;;;;;22.58;17.75;;;;;;;24.20;100.00;97589.44;5111361;28;20186;-55
2023/08/05 04:33:02;;;;;;;23.52;18.42;;;;;;;24.31;100.00;97627.66;5111409;28;20191;-55
2023/08/05 04:35:27;;;;;;;24.05;18.45;;;;;;;24.32;100.00;97613.41;5111178;28;20552;-55
2023/08/05 04:37:52;;;;;;;21.10;16.08;;;;;;;24.26;100.00;97599.16;5111186;28;20211;-55
2023/08/05 04:40:18;;;;;;;20.63;17.30;;;;;;;24.08;100.00;97593.75;5111186;28;20590;-56
2023/08/05 04:42:45;;;;;;;21.25;17.48;;;;;;;24.45;100.00;97623.91;5111054;28;20182;-56
2023/08/05 04:45:11;;;;;;;31.13;21.20;;;;;;;24.59;100.00;97628.94;5111135;28;20302;-56
2023/08/05 04:47:36;;;;;;;30.23;22.42;;;;;;;24.63;100.00;97619.59;5111058;28;20186;-56
2023/08/05 04:50:02;;;;;;;36.90;24.83;;;;;;;24.69;100.00;97621.38;5112787;28;20215;-56
2023/08/05 04:52:27;;;;;;;35.05;25.25;;;;;;;24.49;100.00;97641.78;5113786;28;20539;-56
2023/08/05 04:54:53;;;;;;;33.15;25.10;;;;;;;24.43;100.00;97634.69;5113486;28;20258;-56
2023/08/05 04:57:18;;;;;;;47.95;30.30;;;;;;;24.03;100.00;97596.22;5113340;28;20199;-56
2023/08/05 04:59:44;;;;;;;42.45;28.35;;;;;;;24.25;100.00;97608.13;5113289;28;20175;-56
2023/08/05 05:02:10;;;;;;;52.58;28.88;;;;;;;24.30;100.00;97605.66;5113321;27;20175;-56
2023/08/05 05:04:35;;;;;;;46.03;28.20;;;;;;;24.26;100.00;97604.44;5111911;28;20672;-56
2023/08/05 05:07:01;;;;;;;46.00;29.20;;;;;;;24.24;100.00;97625.03;5112711;28;20187;-56
2023/08/05 05:09:27;;;;;;;43.03;27.35;;;;;;;24.12;100.00;97596.78;5113165;27;20649;-56
2023/08/05 05:11:53;;;;;;;44.58;27.38;;;;;;;24.29;100.00;97611.97;5113150;27;20193;-55
2023/08/05 05:14:20;;;;;;;53.80;29.70;;;;;;;24.48;100.00;97629.59;5113037;28;20178;-56
2023/08/05 05:16:45;;;;;;;53.65;30.90;;;;;;;24.44;100.00;97630.22;5112850;27;20271;-56
2023/08/05 05:19:11;;;;;;;54.90;30.15;;;;;;;24.35;100.00;97605.03;5112942;28;20649;-56
2023/08/05 05:21:36;;;;;;;50.10;29.52;;;;;;;24.53;100.00;97611.25;5112979;28;20175;-55
2023/08/05 05:24:01;;;;;;;54.47;31.02;;;;;;;24.63;100.00;97627.53;5112916;28;20163;-55
2023/08/05 05:26:27;;;;;;;52.38;30.17;;;;;;;24.47;100.00;97606.81;5112824;28;20625;-55
2023/08/05 05:28:52;;;;;;;58.50;29.33;;;;;;;24.77;100.00;97646.75;5112860;28;20182;-56
2023/08/05 05:31:18;;;;;;;55.35;30.27;;;;;;;24.59;100.00;97610.44;5112806;28;20175;-55
2023/08/05 05:33:47;;;;;;;55.53;30.80;;;;;;;24.61;100.00;97602.28;5112687;28;20305;-56
2023/08/05 05:36:12;;;;;;;48.72;28.85;;;;;;;24.67;100.00;97620.75;5112532;28;20195;-56
2023/08/05 05:38:38;;;;;;;49.75;27.80;;;;;;;24.79;100.00;97637.56;5112584;28;20171;-56
2023/08/05 05:41:03;;;;;;;42.22;26.25;;;;;;;24.89;100.00;97627.34;5112233;28;20552;-56
2023/08/05 05:43:29;;;;;;;49.25;28.92;;;;;;;24.93;100.00;97625.91;5112545;28;20171;-56
2023/08/05 05:45:54;;;;;;;62.38;29.77;;;;;;;25.05;100.00;97621.53;5112429;28;20566;-55
2023/08/05 05:48:20;;;;;;;59.58;31.80;;;;;;;25.13;100.00;97613.31;5112472;28;20167;-56
2023/08/05 05:50:46;;;;;;;57.50;29.90;;;;;;;25.40;100.00;97625.38;5112319;28;20266;-56
2023/08/05 05:53:13;;;;;;;54.03;29.70;;;;;;;25.19;100.00;97591.28;5112362;28;20172;-56
2023/08/05 05:55:42;;;;;;;55.30;29.60;;;;;;;25.07;100.00;97587.72;5112269;27;20175;-56
2023/08/05 05:58:08;;;;;;;58.88;30.63;;;;;;;25.04;100.00;97617.28;5111894;28;20556;-56
2023/08/05 06:00:33;;;;;;;58.22;30.27;;;;;;;25.20;100.00;97598.19;5112153;28;20284;-56
2023/08/05 06:02:59;;;;;;;58.42;29.80;;;;;;;25.49;100.00;97621.41;5112143;28;20177;-56
2023/08/05 06:05:24;;;;;;;53.50;28.67;;;;;;;25.68;100.00;97620.41;5112126;28;20168;-56
2023/08/05 06:07:50;;;;;;;50.35;28.08;;;;;;;25.78;100.00;97604.81;5112234;28;20195;-56
2023/08/05 06:10:15;;;;;;;51.20;29.02;;;;;;;26.20;97.61;97619.06;5112005;28;20606;-56
2023/08/05 06:12:40;;;;;;;52.78;28.10;;;;;;;26.07;95.92;97582.88;5111960;28;20235;-56
2023/08/05 06:15:07;;;;;;;49.28;28.27;;;;;;;26.36;95.81;97605.19;5111607;28;20183;-56
2023/08/05 06:17:33;;;;;;;53.08;29.02;;;;;;;26.15;96.52;97592.41;5111761;28;20198;-56
2023/08/05 06:19:58;;;;;;;47.95;27.40;;;;;;;26.14;94.35;97575.69;5111817;28;20171;-56
2023/08/05 06:22:24;;;;;;;42.67;26.50;;;;;;;26.12;95.86;97583.03;5111823;28;20167;-56
2023/08/05 06:24:50;;;;;;;40.88;24.98;;;;;;;26.46;92.92;97600.97;5111772;28;20665;-56
2023/08/05 06:27:16;;;;;;;39.00;25.20;;;;;;;26.32;92.31;97558.91;5111775;28;20171;-56
2023/08/05 06:29:41;;;;;;;39.53;26.95;;;;;;;26.20;93.43;97566.84;5111724;28;20194;-56
2023/08/05 06:32:07;;;;;;;40.15;26.30;;;;;;;26.20;91.90;97561.53;5111378;28;20312;-56
2023/08/05 06:34:33;;;;;;;44.17;28.15;;;;;;;26.35;93.44;97601.72;5111379;28;20175;-56
2023/08/05 06:36:58;;;;;;;43.70;27.77;;;;;;;25.97;95.66;97553.47;5111312;28;20195;-56
2023/08/05 06:39:23;;;;;;;39.78;27.67;;;;;;;26.11;95.87;97570.81;5111618;28;20182;-56
2023/08/05 06:41:49;;;;;;;39.65;27.67;;;;;;;26.42;94.95;97591.84;5111634;28;20167;-56
2023/08/05 06:44:14;;;;;;;38.35;26.63;;;;;;;26.67;93.05;97591.72;5111555;28;20170;-56
2023/08/05 06:46:40;;;;;;;41.72;28.30;;;;;;;26.82;90.83;97597.44;5111506;28;20172;-56
2023/08/05 06:49:06;;;;;;;44.35;27.48;;;;;;;26.43;91.44;97561.63;5111193;28;20296;-56
2023/08/05 06:51:33;;;;;;;38.72;26.05;;;;;;;26.76;90.01;97593.84;5111495;28;20175;-56
2023/08/05 06:53:59;;;;;;;41.13;27.23;;;;;;;26.98;89.05;97586.16;5108579;28;20642;-56
2023/08/05 06:56:24;;;;;;;39.45;27.52;;;;;;;26.84;87.92;97553.72;5108832;28;20231;-56
2023/08/05 06:58:50;;;;;;;41.38;25.85;;;;;;;26.98;87.55;97549.78;5108957;28;20193;-56
2023/08/05 07:01:18;;;;;;;35.38;25.75;;;;;;;26.88;88.71;97560.16;5109094;28;20175;-56
2023/08/05 07:03:44;;;;;;;35.17;25.50;;;;;;;27.16;88.37;97576.28;5108897;28;20194;-56
2023/08/05 07:06:10;;;;;;;37.03;24.58;;;;;;;27.21;87.19;97576.41;5108463;28;20621;-56
2023/08/05 07:08:35;;;;;;;31.88;22.60;;;;;;;27.29;85.22;97560.13;5108728;28;20191;-56
2023/08/05 07:11:00;;;;;;;31.42;21.40;;;;;;;27.33;84.16;97542.69;5108733;28;20182;-56
2023/08/05 07:13:26;;;;;;;31.00;22.30;;;;;;;27.23;84.33;97542.44;5108754;28;20215;-56
2023/08/05 07:16:02;;;;;;;33.40;22.92;;;;;;;27.27;83.32;97546.28;5108679;28;20176;-56
2023/08/05 07:18:28;;;;;;;30.23;21.77;;;;;;;27.50;83.40;97562.22;5108799;28;20185;-56
2023/08/05 07:20:53;;;;;;;28.13;20.45;;;;;;;27.68;80.63;97566.56;5088153;28;20186;-56
2023/08/05 07:23:19;;;;;;;31.13;21.95;;;;;;;27.88;80.40;97569.72;5088256;28;20669;-57
2023/08/05 07:25:45;;;;;;;29.50;22.17;;;;;;;27.97;80.21;97550.50;5088113;28;20180;-56
2023/08/05 07:28:10;;;;;;;29.75;21.67;;;;;;;27.99;79.85;97545.75;5090969;28;20176;-56
2023/08/05 07:30:36;;;;;;;31.45;22.25;;;;;;;28.16;78.01;97567.91;5092191;28;20638;-56
2023/08/05 07:33:04;;;;;;;25.10;21.42;;;;;;;28.17;78.43;97547.44;5092173;28;20184;-56
2023/08/05 07:35:30;;;;;;;26.15;20.40;;;;;;;28.49;77.79;97562.72;5092084;28;20179;-56
2023/08/05 07:37:56;;;;;;;27.30;21.67;;;;;;;28.79;76.29;97575.78;5091911;28;20218;-56
2023/08/05 07:40:22;;;;;;;26.52;20.98;;;;;;;28.39;73.35;97545.78;5091970;28;20577;-56
2023/08/05 07:42:49;;;;;;;28.25;21.25;;;;;;;28.70;73.12;97578.03;5092003;28;20347;-56
2023/08/05 07:45:17;;;;;;;26.83;20.23;;;;;;;28.81;72.43;97560.38;5091919;28;20570;-56
2023/08/05 07:47:44;;;;;;;29.70;21.65;;;;;;;28.49;73.20;97541.44;5091832;28;20188;-57
2023/08/05 07:50:10;;;;;;;28.00;21.27;;;;;;;28.68;73.56;97560.69;5091863;28;20223;-56
2023/08/05 07:52:39;;;;;;;27.95;20.08;;;;;;;28.57;71.04;97564.22;5091821;28;20757;-56
2023/08/05 07:55:04;;;;;;;27.85;19.63;;;;;;;28.26;73.09;97567.28;5091844;28;20179;-56
2023/08/05 07:57:31;;;;;;;29.70;19.77;;;;;;;28.48;73.08;97555.78;5095422;28;20211;-56
2023/08/05 07:59:57;;;;;;;22.55;18.83;;;;;;;28.25;73.29;97521.25;5114535;28;20557;-56
2023/08/05 08:02:24;;;;;;;22.35;19.02;;;;;;;28.51;72.76;97552.63;5114444;28;20273;-56
2023/08/05 08:04:53;;;;;;;21.77;19.45;;;;;;;28.50;72.85;97528.94;5111804;28;20179;-56
2023/08/05 08:07:18;;;;;;;24.05;18.75;;;;;;;28.68;71.43;97550.03;5111970;28;20961;-56
2023/08/05 08:09:43;;;;;;;21.23;16.23;;;;;;;28.54;68.71;97528.22;5111883;28;20653;-57
2023/08/05 08:12:09;;;;;;;20.05;17.13;;;;;;;28.66;69.78;97547.59;5111951;28;20171;-56
2023/08/05 08:14:34;;;;;;;15.27;13.77;;;;;;;28.84;68.33;97546.56;5111718;28;20187;-56
2023/08/05 08:17:00;;;;;;;17.55;14.20;;;;;;;28.98;67.79;97523.94;5111675;28;20206;-56
2023/08/05 08:19:25;;;;;;;17.67;14.07;;;;;;;29.11;64.59;97527.09;5111551;28;20584;-56
2023/08/05 08:21:50;;;;;;;16.60;13.25;;;;;;;29.08;64.51;97524.06;5111706;28;20627;-57
2023/08/05 08:24:16;;;;;;;14.80;13.23;;;;;;;29.06;65.08;97505.69;5111573;28;20190;-56
2023/08/05 08:26:41;;;;;;;15.20;13.27;;;;;;;29.41;64.52;97524.03;5111513;28;20183;-57
2023/08/05 08:29:07;;;;;;;14.98;13.40;;;;;;;29.48;63.52;97488.16;5111522;28;20265;-57
2023/08/05 08:31:33;;;;;;;16.40;12.93;;;;;;;29.67;62.68;97494.03;5111466;28;20183;-56
2023/08/05 08:33:59;;;;;;;13.95;12.65;;;;;;;29.92;60.79;97527.19;5111379;28;20171;-57
2023/08/05 08:36:25;;;;;;;14.15;12.68;;;;;;;30.06;60.71;97528.41;5112845;28;20305;-56
2023/08/05 08:38:50;;;;;;;14.55;12.77;;;;;;;30.16;60.73;97530.41;5113462;28;20649;-56
2023/08/05 08:41:16;;;;;;;15.43;13.90;;;;;;;30.12;59.63;97519.44;5113859;28;20527;-56
2023/08/05 08:43:43;;;;;;;15.80;14.10;;;;;;;30.04;60.34;97514.53;5113710;28;20248;-56
2023/08/05 08:46:11;;;;;;;17.50;13.60;;;;;;;30.03;60.01;97496.88;5113755;28;20179;-57
2023/08/05 08:48:37;;;;;;;17.17;13.48;;;;;;;30.27;60.49;97514.28;5113695;28;20167;-57
2023/08/05 08:51:03;;;;;;;18.58;14.30;;;;;;;30.35;60.21;97513.00;5113622;28;20186;-56
2023/08/05 08:53:33;;;;;;;15.82;13.32;;;;;;;30.36;59.14;97474.56;5113329;28;20175;-56
2023/08/05 08:55:59;;;;;;;15.55;12.82;;;;;;;30.40;59.17;97491.69;5113433;28;20175;-57
2023/08/05 08:58:24;;;;;;;13.63;11.77;;;;;;;30.20;58.54;97454.13;5113461;28;20637;-56
2023/08/05 09:00:50;;;;;;;16.25;11.18;;;;;;;30.41;58.90;97475.44;5113388;28;20171;-56
2023/08/05 09:03:17;;;;;;;13.65;10.52;;;;;;;30.52;57.39;97479.81;5113439;28;20163;-56
2023/08/05 09:05:52;;;;;;;13.55;11.40;;;;;;;30.74;57.12;97472.56;5113003;28;20626;-56
2023/08/05 09:08:19;;;;;;;14.10;12.32;;;;;;;30.79;57.82;97469.91;5113301;28;20189;-56
2023/08/05 09:10:44;;;;;;;13.55;11.60;;;;;;;30.72;56.55;97431.91;5113061;28;20704;-56
2023/08/05 09:13:10;;;;;;;14.90;11.32;;;;;;;30.91;57.02;97437.66;5113248;28;20270;-56
2023/08/05 09:15:37;;;;;;;12.45;9.77;;;;;;;30.99;56.51;97446.00;5113110;28;20660;-56
2023/08/05 09:18:07;;;;;;;10.90;9.80;;;;;;;31.15;57.02;97436.22;5113047;28;20511;-56
2023/08/05 09:20:34;;;;;;;13.30;10.48;;;;;;;31.14;55.07;97419.34;5113109;28;20175;-56
2023/08/05 09:23:02;;;;;;;11.48;9.93;;;;;;;31.15;55.22;97415.66;5112747;27;20171;-56
2023/08/05 09:25:29;;;;;;;12.13;9.10;;;;;;;31.40;54.29;97439.03;5113044;28;20171;-56
2023/08/05 09:27:56;;;;;;;8.73;7.82;;;;;;;31.51;52.94;97436.19;5112882;28;20190;-56
2023/08/05 09:30:23;;;;;;;8.30;7.45;;;;;;;31.44;53.07;97419.56;5112778;28;20183;-56
2023/08/05 09:32:49;;;;;;;10.77;8.07;;;;;;;31.48;52.92;97401.13;5112819;28;20275;-56
2023/08/05 09:35:16;;;;;;;8.63;7.30;;;;;;;31.80;50.53;97425.88;5112767;28;20645;-56
2023/08/05 09:37:46;;;;;;;8.52;7.18;;;;;;;31.84;50.81;97417.06;5112283;28;20564;-56
2023/08/05 09:40:19;;;;;;;7.70;6.97;;;;;;;31.74;50.15;97387.59;5112641;28;20171;-57
2023/08/05 09:42:54;;;;;;;9.68;7.05;;;;;;;31.83;48.77;97391.34;5112745;28;20174;-56
2023/08/05 09:45:21;;;;;;;8.90;6.88;;;;;;;32.10;48.76;97405.34;5112512;28;20175;-56
2023/08/05 09:47:49;;;;;;;8.13;6.25;;;;;;;32.22;46.07;97387.16;5112230;28;20614;-56
2023/08/05 09:50:16;;;;;;;7.07;6.38;;;;;;;32.27;45.00;97397.91;5111415;27;20195;-56
2023/08/05 09:52:43;;;;;;;6.35;5.75;;;;;;;32.38;44.36;97375.41;5112388;28;20321;-56
2023/08/05 09:55:16;;;;;;;7.00;5.60;;;;;;;32.61;41.93;97393.63;5112398;28;20187;-56
2023/08/05 09:57:43;;;;;;;6.13;5.53;;;;;;;32.77;41.57;97415.88;5112320;28;20207;-56
2023/08/05 10:00:14;;;;;;;8.05;5.88;;;;;;;32.78;39.74;97382.63;5112283;28;20172;-56
2023/08/05 10:02:44;;;;;;;5.85;5.30;;;;;;;32.84;40.29;97392.28;5112246;27;20240;-56
2023/08/05 10:05:10;;;;;;;9.63;4.80;;;;;;;32.85;41.61;97381.28;5112206;27;20175;-56
2023/08/05 10:07:37;;;;;;;6.07;5.05;;;;;;;32.98;41.23;97372.66;5109328;28;20286;-56
2023/08/05 10:10:07;;;;;;;7.32;4.95;;;;;;;33.21;39.34;97401.56;5109518;28;20202;-56
2023/08/05 10:12:39;;;;;;;6.30;4.93;;;;;;;33.26;38.61;97371.25;5109538;28;20187;-56
2023/08/05 10:15:07;;;;;;;5.22;4.65;;;;;;;33.40;38.61;97365.03;5109680;28;20204;-56
2023/08/05 10:17:37;;;;;;;6.40;4.50;;;;;;;33.72;37.17;97373.50;5109467;28;20760;-56
2023/08/05 10:20:03;;;;;;;7.47;5.13;;;;;;;33.82;36.85;97370.78;5068633;28;20633;-56
2023/08/05 10:22:30;;;;;;;6.65;5.35;;;;;;;33.87;35.60;97353.84;5068880;28;20191;-58
2023/08/05 10:24:57;;;;;;;7.57;5.30;;;;;;;33.73;35.86;97332.16;5068785;28;20192;-56
2023/08/05 10:27:43;;;;;;;17.33;11.68;;;;;;;33.87;37.09;97333.16;5068792;28;20196;-56
2023/08/05 10:30:09;;;;;;;10.10;5.72;;;;;;;34.23;35.75;97355.19;5068828;28;20189;-57
2023/08/05 10:32:47;;;;;;;6.63;5.40;;;;;;;34.34;34.33;97349.47;5068718;28;20183;-57
2023/08/05 10:35:27;;;;;;;6.10;4.95;;;;;;;34.46;34.65;97349.13;5069107;28;20192;-57
2023/08/05 10:38:11;;;;;;;8.00;5.53;;;;;;;34.45;34.24;97337.56;5072879;28;20208;-57
2023/08/05 10:40:55;;;;;;;6.13;5.53;;;;;;;34.50;32.85;97331.34;5088906;28;20179;-57
2023/08/05 10:43:30;;;;;;;7.45;5.10;;;;;;;34.56;34.31;97346.34;5088924;28;20232;-57
2023/08/05 10:45:57;;;;;;;7.45;4.90;;;;;;;34.73;33.78;97335.97;5088747;28;20186;-57
2023/08/05 10:48:36;;;;;;;11.65;4.88;;;;;;;34.42;33.44;97303.19;5088880;28;20274;-56
2023/08/05 10:51:27;;;;;;;7.05;4.40;;;;;;;34.83;33.51;97330.50;5088828;28;20192;-56
2023/08/05 10:53:55;;;;;;;5.32;4.82;;;;;;;35.09;33.38;97327.22;5086826;28;20270;-56
2023/08/05 10:56:31;;;;;;;7.38;5.80;;;;;;;35.09;32.43;97308.41;5089280;28;20322;-56
2023/08/05 10:58:59;;;;;;;4.97;4.55;;;;;;;35.42;32.02;97329.00;5111353;28;20645;-56
2023/08/05 11:01:52;;;;;;;8.02;5.43;;;;;;;35.40;31.45;97325.00;5112990;28;20556;-56
2023/08/05 11:04:32;;;;;;;6.57;5.10;;;;;;;35.48;32.10;97327.84;5115945;28;20270;-56
2023/08/05 11:07:00;;;;;;;6.43;5.82;;;;;;;35.69;31.09;97312.22;5115654;28;20190;-56
2023/08/05 11:09:34;;;;;;;9.55;7.25;;;;;;;35.93;31.21;97311.09;5115645;28;20178;-56
2023/08/05 11:12:00;;;;;;;10.88;7.28;;;;;;;36.04;30.97;97304.44;5115491;28;20182;-56
2023/08/05 11:14:27;;;;;;;8.10;5.50;;;;;;;36.17;31.41;97284.84;5115524;28;20171;-56
2023/08/05 11:17:00;;;;;;;8.88;7.60;;;;;;;36.37;29.94;97289.88;5115425;28;20207;-56
2023/08/05 11:19:26;;;;;;;3.95;3.65;;;;;;;36.49;29.66;97274.03;5115377;28;20646;-56
2023/08/05 11:21:51;;;;;;;3.92;3.63;;;;;;;36.66;30.12;97284.28;5115466;28;20183;-56
2023/08/05 11:24:17;;;;;;;5.97;3.47;;;;;;;36.88;29.51;97282.50;5115494;28;20177;-56